createdAt,value
2023-01-25T00:00:00.939Z,5.30
2023-01-25T00:02:29.360Z,5.31
2023-01-25T00:04:57.703Z,5.34
2023-01-25T00:07:26.135Z,5.36
2023-01-25T00:09:54.532Z,5.36
2023-01-25T00:12:22.699Z,5.37
2023-01-25T00:14:51.285Z,5.38
2023-01-25T00:17:22.564Z,5.37
2023-01-25T00:19:51.320Z,5.38
2023-01-25T00:22:19.643Z,5.39
2023-01-25T00:24:48.733Z,5.41
2023-01-25T00:27:17.117Z,5.42
2023-01-25T00:30:06.100Z,5.41
2023-01-25T00:32:43.737Z,5.41
2023-01-25T00:35:13.907Z,5.39
2023-01-25T00:37:44.983Z,5.38
2023-01-25T00:40:15.577Z,5.38
2023-01-25T00:42:43.857Z,5.38
2023-01-25T00:45:13.103Z,5.38
2023-01-25T00:47:43.639Z,5.37
2023-01-25T00:50:12.696Z,5.37
2023-01-25T00:52:41.748Z,5.40
2023-01-25T00:55:12.362Z,5.42
2023-01-25T00:57:40.694Z,5.44
2023-01-25T01:00:10.675Z,5.45
2023-01-25T01:02:39.961Z,5.46
2023-01-25T01:05:11.035Z,5.48
2023-01-25T01:07:39.990Z,5.49
2023-01-25T01:10:09.658Z,5.48
2023-01-25T01:12:37.892Z,5.49
2023-01-25T01:15:07.721Z,5.51
2023-01-25T01:17:36.218Z,5.52
2023-01-25T01:20:04.550Z,5.54
2023-01-25T01:22:34.252Z,5.57
2023-01-25T01:25:03.175Z,5.58
2023-01-25T01:27:34.113Z,5.61
2023-01-25T01:30:02.626Z,5.60
2023-01-25T01:32:32.717Z,5.60
2023-01-25T01:35:01.223Z,5.63
2023-01-25T01:37:29.727Z,5.65
2023-01-25T01:39:59.488Z,5.68
2023-01-25T01:42:28.491Z,5.71
2023-01-25T01:44:56.926Z,5.72
2023-01-25T01:47:29.857Z,5.73
2023-01-25T01:50:04.089Z,5.76
2023-01-25T01:52:38.245Z,5.77
2023-01-25T01:55:11.969Z,5.78
2023-01-25T01:57:46.652Z,5.80
2023-01-25T02:00:19.496Z,5.81
2023-01-25T02:03:00.876Z,5.83
2023-01-25T02:05:35.614Z,5.84
2023-01-25T02:08:05.320Z,5.88
2023-01-25T02:10:36.102Z,5.88
2023-01-25T02:13:04.639Z,5.90
2023-01-25T02:15:40.372Z,5.91
2023-01-25T02:18:10.394Z,5.91
2023-01-25T02:20:41.024Z,5.91
2023-01-25T02:23:17.852Z,5.92
2023-01-25T02:25:48.156Z,5.91
2023-01-25T02:28:22.310Z,5.91
2023-01-25T02:30:50.621Z,5.93
2023-01-25T02:33:19.035Z,5.93
2023-01-25T02:35:50.328Z,5.91
2023-01-25T02:38:21.326Z,5.90
2023-01-25T02:40:57.773Z,5.90
2023-01-25T02:43:31.138Z,5.89
2023-01-25T02:46:57.341Z,5.90
2023-01-25T02:49:26.506Z,5.87
2023-01-25T02:51:59.052Z,5.86
2023-01-25T02:54:27.849Z,5.82
2023-01-25T02:56:57.588Z,5.82
2023-01-25T02:59:25.975Z,5.79
2023-01-25T03:01:54.484Z,5.81
2023-01-25T03:04:23.101Z,5.81
2023-01-25T03:06:52.966Z,5.82
2023-01-25T03:09:24.020Z,5.81
2023-01-25T03:11:52.223Z,5.82
2023-01-25T03:14:21.938Z,5.84
2023-01-25T03:16:50.670Z,5.85
2023-01-25T03:19:18.996Z,5.86
2023-01-25T03:21:47.967Z,5.87
2023-01-25T03:24:16.434Z,5.89
2023-01-25T03:27:02.764Z,5.88
2023-01-25T03:29:33.704Z,5.90
2023-01-25T03:32:02.185Z,5.91
2023-01-25T03:34:31.160Z,5.94
2023-01-25T03:36:59.858Z,5.93
2023-01-25T03:39:28.649Z,5.94
2023-01-25T03:41:58.198Z,5.97
2023-01-25T03:44:26.423Z,5.99
2023-01-25T03:46:56.121Z,6.00
2023-01-25T03:49:25.836Z,6.03
2023-01-25T03:51:55.589Z,6.02
2023-01-25T03:54:24.236Z,6.04
2023-01-25T03:56:53.341Z,6.03
2023-01-25T03:59:21.788Z,6.01
2023-01-25T04:01:50.034Z,6.02
2023-01-25T04:04:19.818Z,6.02
2023-01-25T04:06:52.842Z,6.03
2023-01-25T04:09:21.097Z,6.02
2023-01-25T04:11:51.330Z,6.00
2023-01-25T04:14:31.749Z,6.01
2023-01-25T04:17:08.461Z,6.02
2023-01-25T04:19:38.305Z,6.00
2023-01-25T04:22:06.529Z,6.01
2023-01-25T04:24:53.701Z,6.02
2023-01-25T04:27:22.068Z,6.03
2023-01-25T04:29:50.444Z,6.05
2023-01-25T04:32:19.189Z,6.06
2023-01-25T04:34:49.376Z,6.05
2023-01-25T04:37:18.168Z,6.04
2023-01-25T04:39:47.333Z,6.04
2023-01-25T04:42:18.018Z,6.03
2023-01-25T04:44:46.474Z,6.05
2023-01-25T04:47:14.754Z,6.09
2023-01-25T04:49:43.234Z,6.07
2023-01-25T04:52:13.026Z,6.06
2023-01-25T04:54:42.427Z,6.08
2023-01-25T04:57:10.831Z,6.06
2023-01-25T04:59:39.039Z,6.06
2023-01-25T05:02:07.538Z,6.06
2023-01-25T05:04:35.958Z,6.05
2023-01-25T05:07:09.573Z,6.04
2023-01-25T05:09:39.527Z,6.02
2023-01-25T05:12:11.992Z,6.01
2023-01-25T05:14:40.754Z,5.98
2023-01-25T05:17:10.715Z,5.99
2023-01-25T05:19:42.172Z,5.98
2023-01-25T05:22:15.959Z,5.98
2023-01-25T05:24:46.552Z,5.95
2023-01-25T05:27:15.920Z,5.98
2023-01-25T05:29:45.970Z,5.98
2023-01-25T05:32:16.373Z,6.00
2023-01-25T05:34:45.077Z,6.01
2023-01-25T05:37:16.756Z,5.94
2023-01-25T05:40:13.860Z,5.96
2023-01-25T05:42:42.446Z,5.94
2023-01-25T05:45:12.059Z,5.93
2023-01-25T05:47:41.617Z,5.93
2023-01-25T05:50:11.125Z,5.89
2023-01-25T05:52:39.655Z,5.90
2023-01-25T05:55:08.745Z,5.91
2023-01-25T05:57:39.331Z,5.89
2023-01-25T06:00:09.233Z,5.90
2023-01-25T06:02:37.877Z,5.91
2023-01-25T06:05:07.190Z,5.92
2023-01-25T06:07:36.982Z,5.92
2023-01-25T06:10:06.213Z,5.90
2023-01-25T06:12:39.827Z,5.90
2023-01-25T06:15:09.499Z,5.88
2023-01-25T06:17:39.243Z,5.84
2023-01-25T06:20:08.647Z,5.82
2023-01-25T06:22:37.008Z,5.83
2023-01-25T06:25:06.137Z,5.83
2023-01-25T06:27:34.612Z,5.84
2023-01-25T06:30:05.426Z,5.78
2023-01-25T06:32:34.585Z,5.84
2023-01-25T06:35:04.171Z,5.83
2023-01-25T06:37:32.411Z,5.82
2023-01-25T06:40:01.732Z,5.81
2023-01-25T06:42:30.139Z,5.80
2023-01-25T06:44:58.352Z,5.76
2023-01-25T06:47:28.312Z,5.76
2023-01-25T06:49:56.802Z,5.74
2023-01-25T06:57:02.547Z,5.74
2023-01-25T06:59:31.081Z,5.76
2023-01-25T07:01:59.687Z,5.74
2023-01-25T07:04:31.221Z,5.73
2023-01-25T07:06:59.745Z,5.72
2023-01-25T07:09:28.144Z,5.74
2023-01-25T07:11:56.579Z,5.73
2023-01-25T07:14:27.921Z,5.74
2023-01-25T07:16:56.499Z,5.78
2023-01-25T07:19:29.711Z,5.80
2023-01-25T07:21:58.003Z,5.81
2023-01-25T07:24:29.898Z,5.80
2023-01-25T07:26:58.224Z,5.80
2023-01-25T07:29:26.865Z,5.81
2023-01-25T07:31:55.362Z,5.78
2023-01-25T07:34:30.538Z,5.79
2023-01-25T07:37:00.650Z,5.78
2023-01-25T07:39:30.162Z,5.77
2023-01-25T07:41:58.744Z,5.73
2023-01-25T07:44:27.079Z,5.72
2023-01-25T07:46:55.342Z,5.74
2023-01-25T07:49:26.649Z,5.71
2023-01-25T07:51:55.232Z,5.69
2023-01-25T07:54:30.297Z,5.70
2023-01-25T07:56:58.551Z,5.67
2023-01-25T07:59:37.523Z,5.64
2023-01-25T08:02:06.079Z,5.59
2023-01-25T08:04:35.080Z,5.58
2023-01-25T08:07:03.566Z,5.59
2023-01-25T08:09:44.332Z,5.56
2023-01-25T08:12:13.116Z,5.56
2023-01-25T08:14:54.574Z,5.53
2023-01-25T08:17:22.958Z,5.58
2023-01-25T08:20:09.792Z,5.59
2023-01-25T08:22:38.131Z,5.61
2023-01-25T08:25:09.968Z,5.63
2023-01-25T08:27:38.717Z,5.65
2023-01-25T08:30:08.459Z,5.69
2023-01-25T08:32:38.176Z,5.76
2023-01-25T08:35:08.204Z,5.83
2023-01-25T08:37:36.801Z,5.88
2023-01-25T08:42:50.918Z,5.94
2023-01-25T08:45:19.953Z,5.96
2023-01-25T08:47:48.295Z,5.98
2023-01-25T08:50:17.088Z,6.00
2023-01-25T08:52:46.886Z,5.99
2023-01-25T08:55:17.110Z,5.98
2023-01-25T08:57:45.788Z,5.92
2023-01-25T09:00:15.609Z,5.96
2023-01-25T09:02:44.262Z,5.96
2023-01-25T09:05:12.717Z,5.92
2023-01-25T09:07:41.175Z,5.93
2023-01-25T09:10:11.341Z,5.94
2023-01-25T09:12:42.677Z,5.86
2023-01-25T09:15:12.061Z,5.86
2023-01-25T09:17:40.487Z,5.91
2023-01-25T09:20:10.792Z,5.89
2023-01-25T09:22:40.769Z,5.82
2023-01-25T09:25:09.885Z,5.79
2023-01-25T09:27:38.548Z,5.75
2023-01-25T09:30:18.212Z,5.71
2023-01-25T09:32:47.191Z,5.68
2023-01-25T09:35:16.039Z,5.69
2023-01-25T09:37:45.277Z,5.69
2023-01-25T09:40:23.110Z,5.67
2023-01-25T09:43:04.120Z,5.65
2023-01-25T09:45:36.206Z,5.55
2023-01-25T09:48:14.496Z,5.55
2023-01-25T09:50:57.039Z,5.52
2023-01-25T09:53:35.903Z,5.50
2023-01-25T09:56:11.057Z,5.48
2023-01-25T09:58:44.903Z,5.48
2023-01-25T10:01:37.396Z,5.48
2023-01-25T10:04:13.897Z,5.50
2023-01-25T10:06:54.996Z,5.48
2023-01-25T10:09:37.829Z,5.46
2023-01-25T10:12:16.826Z,5.46
2023-01-25T10:15:03.795Z,5.42
2023-01-25T10:17:39.021Z,5.47
2023-01-25T10:20:21.814Z,5.46
2023-01-25T10:22:53.081Z,5.52
2023-01-25T10:25:30.033Z,5.51
2023-01-25T10:28:10.717Z,5.51
2023-01-25T10:30:44.272Z,5.55
2023-01-25T10:33:17.136Z,5.53
2023-01-25T10:35:47.964Z,5.56
2023-01-25T10:38:21.527Z,5.47
2023-01-25T10:41:00.238Z,5.49
2023-01-25T10:43:31.809Z,5.51
2023-01-25T10:46:00.522Z,5.48
2023-01-25T10:48:34.552Z,5.52
2023-01-25T10:51:06.596Z,5.48
2023-01-25T10:53:38.822Z,5.39
2023-01-25T10:56:21.412Z,5.41
2023-01-25T10:58:51.904Z,5.45
2023-01-25T11:01:31.956Z,5.45
2023-01-25T11:04:03.328Z,5.46
2023-01-25T11:06:35.906Z,5.54
2023-01-25T11:09:32.544Z,5.60
2023-01-25T11:12:02.915Z,5.70
2023-01-25T11:14:32.421Z,5.74
2023-01-25T11:17:02.950Z,5.78
2023-01-25T11:19:36.168Z,5.81
2023-01-25T11:22:07.329Z,5.86
2023-01-25T11:24:37.799Z,5.87
2023-01-25T11:27:20.201Z,5.85
2023-01-25T11:30:11.431Z,5.82
2023-01-25T11:32:41.210Z,5.80
2023-01-25T11:35:16.202Z,5.81
2023-01-25T11:38:04.637Z,5.77
2023-01-25T11:40:39.748Z,5.78
2023-01-25T11:43:21.782Z,5.74
2023-01-25T11:46:03.350Z,5.70
2023-01-25T11:48:55.656Z,5.67
2023-01-25T11:55:23.397Z,5.64
2023-01-25T11:58:09.138Z,5.62
2023-01-25T12:00:50.203Z,5.63
2023-01-25T12:03:52.883Z,5.61
2023-01-25T12:06:29.138Z,5.60
2023-01-25T12:09:17.008Z,5.57
2023-01-25T12:12:02.540Z,5.56
2023-01-25T12:14:47.177Z,5.56
2023-01-25T12:17:33.402Z,5.54
2023-01-25T12:20:24.867Z,5.52
2023-01-25T12:23:33.309Z,5.49
2023-01-25T12:26:14.364Z,5.45
2023-01-25T12:28:50.524Z,5.40
2023-01-25T12:31:23.976Z,5.37
2023-01-25T12:33:57.493Z,5.37
2023-01-25T12:36:32.896Z,5.34
2023-01-25T12:39:06.885Z,5.28
2023-01-25T12:41:42.907Z,5.28
2023-01-25T12:44:21.103Z,5.29
2023-01-25T12:46:57.737Z,5.27
2023-01-25T12:49:31.868Z,5.25
2023-01-25T12:52:06.257Z,5.20
2023-01-25T12:54:40.736Z,5.18
2023-01-25T12:57:21.519Z,5.11
2023-01-25T13:08:31.118Z,5.09
2023-01-25T13:11:21.375Z,5.09
2023-01-25T13:13:49.948Z,5.09
2023-01-25T13:16:33.059Z,5.11
2023-01-25T13:19:01.552Z,5.11
2023-01-25T13:21:47.345Z,5.10
2023-01-25T13:24:24.715Z,5.10
2023-01-25T13:27:06.429Z,5.11
2023-01-25T13:30:00.561Z,5.11
2023-01-25T13:33:07.077Z,5.11
2023-01-25T13:35:45.568Z,5.10
2023-01-25T13:38:40.905Z,5.08
2023-01-25T13:41:17.277Z,5.07
2023-01-25T13:43:51.927Z,5.05
2023-01-25T13:46:25.458Z,5.05
2023-01-25T13:49:19.070Z,5.03
2023-01-25T13:51:57.567Z,5.03
2023-01-25T13:54:25.792Z,5.00
2023-01-25T13:57:06.696Z,4.98
2023-01-25T13:59:36.329Z,4.97
2023-01-25T14:02:05.701Z,4.95
2023-01-25T14:04:34.187Z,4.95
2023-01-25T14:07:09.945Z,4.96
2023-01-25T14:09:38.567Z,4.95
2023-01-25T14:12:13.620Z,4.93
2023-01-25T14:15:00.345Z,4.92
2023-01-25T14:17:28.717Z,4.90
2023-01-25T14:20:00.159Z,4.90
2023-01-25T14:22:29.969Z,4.87
2023-01-25T14:25:08.560Z,4.83
2023-01-25T14:27:38.971Z,4.79
2023-01-25T14:30:30.797Z,4.74
2023-01-25T14:33:04.120Z,4.69
2023-01-25T14:35:42.728Z,4.66
2023-01-25T14:38:30.220Z,4.63
2023-01-25T14:41:04.453Z,4.63
2023-01-25T14:43:34.505Z,4.59
2023-01-25T14:46:23.827Z,4.61
2023-01-25T14:48:53.102Z,4.61
2023-01-25T14:51:28.632Z,4.59
2023-01-25T14:54:18.280Z,4.58
2023-01-25T14:56:48.702Z,4.56
2023-01-25T14:59:27.854Z,4.59
2023-01-25T15:01:59.652Z,4.60
2023-01-25T15:04:28.055Z,4.62
2023-01-25T15:07:01.113Z,4.60
2023-01-25T15:09:40.942Z,4.63
2023-01-25T15:12:29.581Z,4.60
2023-01-25T15:15:03.821Z,4.61
2023-01-25T15:17:43.287Z,4.59
2023-01-25T15:20:39.521Z,4.56
2023-01-25T15:23:26.355Z,4.54
2023-01-25T15:25:55.913Z,4.50
2023-01-25T15:28:25.953Z,4.50
2023-01-25T15:30:55.126Z,4.46
2023-01-25T15:33:27.186Z,4.46
2023-01-25T15:35:58.856Z,4.44
2023-01-25T15:38:27.266Z,4.46
2023-01-25T15:41:01.850Z,4.48
2023-01-25T15:43:31.021Z,4.48
2023-01-25T15:46:01.709Z,4.50
2023-01-25T15:48:35.834Z,4.52
2023-01-25T15:51:04.993Z,4.56
2023-01-25T15:53:33.484Z,4.60
2023-01-25T15:59:08.048Z,4.69
2023-01-25T16:01:36.733Z,4.69
2023-01-25T16:04:07.044Z,4.76
2023-01-25T16:06:40.759Z,4.79
2023-01-25T16:09:21.408Z,4.82
2023-01-25T16:11:53.223Z,4.85
2023-01-25T16:17:30.749Z,4.90
2023-01-25T16:20:00.807Z,4.92
2023-01-25T16:22:29.404Z,4.94
2023-01-25T16:24:57.810Z,4.95
2023-01-25T16:27:35.593Z,4.98
2023-01-25T16:30:04.604Z,4.98
2023-01-25T16:32:32.945Z,4.97
2023-01-25T16:35:17.348Z,4.98
2023-01-25T16:37:47.579Z,4.96
2023-01-25T16:40:24.861Z,4.97
2023-01-25T16:42:53.350Z,4.95
2023-01-25T16:45:21.980Z,4.95
2023-01-25T16:47:51.231Z,4.95
2023-01-25T16:50:22.848Z,4.96
2023-01-25T16:52:53.051Z,4.96
2023-01-25T16:55:21.468Z,4.98
2023-01-25T16:57:52.424Z,4.98
2023-01-25T17:00:21.523Z,4.98
2023-01-25T17:02:59.215Z,4.97
2023-01-25T17:05:33.009Z,4.97
2023-01-25T17:08:01.437Z,4.96
2023-01-25T17:10:33.280Z,4.93
2023-01-25T17:13:02.014Z,4.94
2023-01-25T17:15:30.620Z,4.94
2023-01-25T17:18:00.468Z,4.95
2023-01-25T17:20:31.812Z,4.95
2023-01-25T17:23:00.408Z,4.95
2023-01-25T17:25:32.662Z,4.98
2023-01-25T17:28:01.181Z,4.97
2023-01-25T17:30:29.417Z,4.99
2023-01-25T17:32:58.225Z,5.01
2023-01-25T17:35:26.756Z,5.00
2023-01-25T17:37:57.489Z,4.96
2023-01-25T17:40:26.426Z,4.95
2023-01-25T17:42:55.107Z,4.95
2023-01-25T17:45:23.358Z,4.94
2023-01-25T17:47:51.789Z,4.94
2023-01-25T17:50:20.316Z,4.93
2023-01-25T17:52:48.905Z,4.94
2023-01-25T17:55:20.605Z,4.93
2023-01-25T17:57:48.981Z,4.94
2023-01-25T18:00:18.293Z,4.92
2023-01-25T18:02:47.032Z,4.95
2023-01-25T18:05:15.834Z,4.92
2023-01-25T18:07:45.265Z,4.92
2023-01-25T18:10:14.601Z,4.91
2023-01-25T18:12:46.428Z,4.87
2023-01-25T18:15:22.372Z,4.86
2023-01-25T18:17:50.659Z,4.86
2023-01-25T18:20:19.757Z,4.87
2023-01-25T18:22:48.032Z,4.85
2023-01-25T18:25:32.549Z,4.83
2023-01-25T18:28:03.393Z,4.86
2023-01-25T18:30:35.552Z,4.86
2023-01-25T18:33:05.977Z,4.84
2023-01-25T18:35:35.178Z,4.84
2023-01-25T18:38:03.465Z,4.84
2023-01-25T18:40:31.868Z,4.84
2023-01-25T18:43:02.839Z,4.83
2023-01-25T18:45:31.308Z,4.82
2023-01-25T18:48:01.521Z,4.82
2023-01-25T18:50:31.354Z,4.82
2023-01-25T18:53:00.136Z,4.82
2023-01-25T18:55:30.445Z,4.83
2023-01-25T18:58:04.179Z,4.83
2023-01-25T19:00:35.505Z,4.86
2023-01-25T19:03:04.315Z,4.86
2023-01-25T19:05:34.838Z,4.84
2023-01-25T19:08:04.616Z,4.83
2023-01-25T19:10:33.439Z,4.81
2023-01-25T19:13:03.061Z,4.84
2023-01-25T19:15:31.582Z,4.89
2023-01-25T19:18:01.741Z,4.87
2023-01-25T19:20:30.372Z,4.87
2023-01-25T19:23:02.139Z,4.86
2023-01-25T19:25:30.806Z,4.87
2023-01-25T19:27:59.406Z,4.87
2023-01-25T19:34:20.312Z,4.86
2023-01-25T19:36:50.352Z,4.86
2023-01-25T19:39:19.522Z,4.83
2023-01-25T19:41:48.111Z,4.84
2023-01-25T19:44:17.842Z,4.83
2023-01-25T19:46:46.475Z,4.84
2023-01-25T19:49:15.208Z,4.87
2023-01-25T19:51:52.806Z,4.86
2023-01-25T19:54:31.214Z,4.87
2023-01-25T19:56:59.794Z,4.88
2023-01-25T19:59:29.194Z,4.86
2023-01-25T20:01:58.552Z,4.87
2023-01-25T20:04:26.905Z,4.87
2023-01-25T20:06:56.511Z,4.87
2023-01-25T20:09:28.341Z,4.88
2023-01-25T20:11:58.376Z,4.89
2023-01-25T20:14:26.989Z,4.89
2023-01-25T20:16:56.073Z,4.91
2023-01-25T20:19:25.492Z,4.93
2023-01-25T20:21:54.292Z,4.92
2023-01-25T20:24:24.378Z,4.92
2023-01-25T20:26:52.816Z,4.94
2023-01-25T20:29:22.470Z,4.91
2023-01-25T20:31:50.768Z,4.94
2023-01-25T20:34:21.010Z,4.94
2023-01-25T20:36:51.911Z,4.96
2023-01-25T20:39:21.824Z,4.99
2023-01-25T20:41:53.830Z,5.02
2023-01-25T20:44:23.211Z,5.03
2023-01-25T20:46:55.180Z,5.05
2023-01-25T20:49:23.699Z,5.06
2023-01-25T20:51:52.251Z,5.10
2023-01-25T20:54:22.617Z,5.09
2023-01-25T20:56:53.100Z,5.13
2023-01-25T20:59:21.366Z,5.12
2023-01-25T21:01:50.716Z,5.11
2023-01-25T21:04:19.525Z,5.12
2023-01-25T21:06:48.138Z,5.05
2023-01-25T21:09:18.878Z,5.09
2023-01-25T21:11:47.251Z,5.06
2023-01-25T21:14:17.690Z,5.07
2023-01-25T21:16:46.317Z,5.06
2023-01-25T21:19:14.710Z,5.03
2023-01-25T21:21:43.339Z,5.03
2023-01-25T21:24:12.032Z,5.00
2023-01-25T21:26:40.413Z,5.00
2023-01-25T21:29:08.904Z,4.98
2023-01-25T21:31:42.779Z,4.99
2023-01-25T21:34:11.823Z,4.99
2023-01-25T21:36:40.098Z,4.99
2023-01-25T21:39:19.317Z,5.04
2023-01-25T21:41:47.994Z,5.05
2023-01-25T21:44:33.967Z,5.06
2023-01-25T21:50:11.181Z,5.07
2023-01-25T21:52:39.670Z,5.04
2023-01-25T21:55:11.942Z,5.06
2023-01-25T21:57:46.537Z,5.04
2023-01-25T22:00:17.835Z,5.04
2023-01-25T22:02:51.800Z,5.01
2023-01-25T22:05:20.333Z,5.00
2023-01-25T22:07:48.673Z,4.99
2023-01-25T22:10:17.964Z,5.01
2023-01-25T22:12:50.781Z,5.00
2023-01-25T22:15:19.113Z,5.00
2023-01-25T22:17:49.066Z,5.01
2023-01-25T22:20:26.521Z,5.01
2023-01-25T22:22:54.833Z,5.02
2023-01-25T22:25:23.337Z,5.01
2023-01-25T22:27:56.905Z,5.01
2023-01-25T22:30:25.369Z,5.00
2023-01-25T22:32:55.288Z,4.99
2023-01-25T22:35:23.824Z,4.99
2023-01-25T22:37:52.305Z,4.98
2023-01-25T22:40:21.504Z,4.95
2023-01-25T22:42:50.484Z,4.99
2023-01-25T22:45:19.579Z,5.04
2023-01-25T22:47:48.225Z,5.06
2023-01-25T22:50:18.501Z,5.07
2023-01-25T22:52:49.068Z,5.10
2023-01-25T22:55:19.460Z,5.10
2023-01-25T22:57:47.837Z,5.11
2023-01-25T23:00:17.635Z,5.08
2023-01-25T23:02:46.030Z,5.09
2023-01-25T23:05:14.924Z,5.09
2023-01-25T23:07:45.035Z,5.06
2023-01-25T23:10:13.633Z,5.04
2023-01-25T23:12:42.119Z,5.09
2023-01-25T23:15:15.764Z,5.10
2023-01-25T23:18:01.772Z,5.06
2023-01-25T23:20:33.518Z,5.11
2023-01-25T23:23:04.405Z,5.09
2023-01-25T23:25:33.203Z,5.08
2023-01-25T23:28:01.777Z,5.07
2023-01-25T23:30:30.694Z,5.04
2023-01-25T23:32:59.404Z,5.07
2023-01-25T23:35:29.837Z,5.04
2023-01-25T23:37:58.364Z,5.04
2023-01-25T23:40:29.629Z,5.06
2023-01-25T23:42:58.664Z,5.09
2023-01-25T23:45:27.627Z,5.05
2023-01-25T23:47:55.959Z,5.11
2023-01-25T23:50:24.540Z,5.10
2023-01-25T23:52:53.744Z,5.06
2023-01-25T23:55:22.142Z,5.11
2023-01-25T23:57:55.705Z,5.11
